Time;durP1;ratioP1;P1;durP2;ratioP2;P2;SDS_P1;SDS_P2;PMS_P1;PMS_P2;Temp;Humidity;BMP_temperature;BMP_pressure;BME280_temperature;BME280_humidity;BME280_pressure;Samples;Min_cycle;Max_cycle;Signal;HPM_P1;HPM_P2
2022/12/09 00:01:49;;;;;;;14.70;7.40;;;3.80;99.90;;;;;;5110325;28;20039;-89
2022/12/09 00:04:16;;;;;;;14.15;6.15;;;3.80;99.90;;;;;;5109583;28;20505;-88
2022/12/09 00:06:41;;;;;;;13.32;6.68;;;3.80;99.90;;;;;;5091444;28;20035;-88
2022/12/09 00:09:12;;;;;;;14.82;6.85;;;3.80;99.90;;;;;;5089639;28;20109;-88
2022/12/09 00:11:37;;;;;;;13.35;7.15;;;3.80;99.90;;;;;;5073737;28;20039;-89
2022/12/09 00:14:03;;;;;;;14.32;7.30;;;3.80;99.90;;;;;;5102343;28;20032;-88
2022/12/09 00:16:28;;;;;;;14.40;6.47;;;3.80;99.90;;;;;;5110755;28;20401;-88
2022/12/09 00:18:56;;;;;;;12.60;6.93;;;3.80;99.90;;;;;;5108971;28;20535;-88
2022/12/09 00:21:33;;;;;;;15.10;7.00;;;3.80;99.90;;;;;;5093371;28;20039;-88
2022/12/09 00:24:05;;;;;;;15.23;7.70;;;3.80;99.90;;;;;;5109414;28;20032;-88
2022/12/09 00:26:32;;;;;;;13.50;6.63;;;3.80;99.90;;;;;;5092613;28;20567;-88
2022/12/09 00:28:58;;;;;;;13.55;6.35;;;3.80;99.90;;;;;;5092058;28;20287;-88
2022/12/09 00:31:26;;;;;;;14.10;6.57;;;3.80;99.90;;;;;;5109613;28;20042;-88
2022/12/09 00:33:55;;;;;;;13.02;7.07;;;3.80;99.90;;;;;;5110119;28;20042;-88
2022/12/09 00:36:21;;;;;;;13.88;7.43;;;3.80;99.90;;;;;;5108931;28;20071;-88
2022/12/09 00:38:48;;;;;;;14.48;7.75;;;3.80;99.90;;;;;;5110109;28;20049;-88
2022/12/09 00:41:15;;;;;;;14.63;8.10;;;3.80;99.90;;;;;;5092106;28;20039;-88
2022/12/09 00:43:41;;;;;;;16.20;8.65;;;3.80;99.90;;;;;;5109266;28;20067;-88
2022/12/09 00:46:07;;;;;;;17.60;8.13;;;3.80;99.90;;;;;;5092252;28;20032;-88
2022/12/09 00:48:33;;;;;;;16.13;8.05;;;3.80;99.90;;;;;;5092185;28;20051;-88
2022/12/09 00:51:00;;;;;;;17.75;8.50;;;3.80;99.90;;;;;;5109689;28;20436;-88
2022/12/09 00:53:26;;;;;;;15.13;7.57;;;3.80;99.90;;;;;;5103173;28;20072;-88
2022/12/09 00:55:52;;;;;;;15.00;7.70;;;3.80;99.90;;;;;;5072559;28;20047;-88
2022/12/09 00:58:17;;;;;;;15.65;7.65;;;3.80;99.90;;;;;;5072485;28;20047;-88
2022/12/09 01:00:43;;;;;;;16.67;7.32;;;3.80;99.90;;;;;;5106499;28;20575;-88
2022/12/09 01:03:16;;;;;;;15.32;8.02;;;3.80;99.90;;;;;;5092382;28;20036;-88
2022/12/09 01:05:42;;;;;;;;;;;3.90;99.90;;;;;;5109172;28;20043;-88
2022/12/09 01:08:09;;;;;;;15.98;7.65;;;3.90;99.90;;;;;;5109132;28;19916;-88
2022/12/09 01:10:35;;;;;;;14.93;7.63;;;3.90;99.90;;;;;;5109600;28;20071;-88
2022/12/09 01:13:00;;;;;;;16.90;7.28;;;3.80;99.90;;;;;;5092232;28;20523;-88
2022/12/09 01:15:26;;;;;;;16.33;8.00;;;3.80;99.90;;;;;;5109990;28;20111;-89
2022/12/09 01:17:51;;;;;;;18.70;8.55;;;3.80;99.90;;;;;;5109171;28;20036;-88
2022/12/09 01:20:17;;;;;;;15.82;8.07;;;3.90;99.90;;;;;;5110594;28;20439;-88
2022/12/09 01:22:43;;;;;;;16.48;7.85;;;3.80;99.90;;;;;;5113485;28;20069;-88
2022/12/09 01:25:08;;;;;;;14.35;7.65;;;3.90;99.90;;;;;;5095695;28;20032;-88
2022/12/09 01:27:34;;;;;;;15.45;7.18;;;3.90;99.90;;;;;;5096013;28;20386;-88
2022/12/09 01:29:59;;;;;;;14.40;7.85;;;3.90;99.90;;;;;;5096208;28;20401;-88
2022/12/09 01:32:25;;;;;;;15.45;7.18;;;3.90;99.90;;;;;;5095976;28;20164;-88
2022/12/09 01:34:51;;;;;;;14.50;8.30;;;3.80;99.90;;;;;;5114334;28;20521;-88
2022/12/09 01:37:16;;;;;;;15.25;7.70;;;3.80;99.90;;;;;;5095880;28;20035;-88
2022/12/09 01:39:42;;;;;;;14.95;7.85;;;3.80;99.90;;;;;;5095916;28;20512;-88
2022/12/09 01:42:19;;;;;;;14.05;7.55;;;3.80;99.90;;;;;;5095655;28;20035;-88
2022/12/09 01:45:19;;;;;;;18.00;8.15;;;3.80;99.90;;;;;;5112475;28;20048;-88
2022/12/09 01:48:04;;;;;;;16.42;8.38;;;3.80;99.90;;;;;;5113042;28;20115;-89
2022/12/09 01:50:31;;;;;;;14.90;7.22;;;3.80;99.90;;;;;;5112736;28;20080;-89
2022/12/09 01:52:57;;;;;;;17.80;9.20;;;3.80;99.90;;;;;;5095923;28;20501;-89
2022/12/09 01:55:23;;;;;;;13.65;7.63;;;3.80;99.90;;;;;;5096017;28;20044;-88
2022/12/09 01:57:49;;;;;;;17.88;9.27;;;3.80;99.90;;;;;;5112507;28;20084;-89
2022/12/09 02:00:15;;;;;;;15.90;7.53;;;3.80;99.90;;;;;;5095489;28;20134;-89
2022/12/09 02:02:44;;;;;;;15.32;7.78;;;3.80;99.90;;;;;;5087431;28;20047;-89
2022/12/09 02:05:10;;;;;;;18.73;8.23;;;3.80;99.90;;;;;;5075631;28;20067;-89
2022/12/09 02:07:36;;;;;;;15.52;8.63;;;3.80;99.90;;;;;;5078035;28;20035;-88
2022/12/09 02:10:07;;;;;;;17.60;8.68;;;3.80;99.90;;;;;;5095139;28;20031;-88
2022/12/09 02:12:49;;;;;;;17.90;8.77;;;3.80;99.90;;;;;;5095059;28;20036;-88
2022/12/09 02:15:22;;;;;;;18.98;8.45;;;3.80;99.90;;;;;;5112969;28;20119;-89
2022/12/09 02:17:53;;;;;;;16.70;9.13;;;3.80;99.90;;;;;;5112602;28;20055;-89
2022/12/09 02:20:51;;;;;;;17.50;8.15;;;3.80;99.90;;;;;;5094306;28;20555;-89
2022/12/09 02:23:29;;;;;;;16.42;9.40;;;3.80;99.90;;;;;;5095018;28;20048;-88
2022/12/09 02:26:26;;;;;;;17.92;8.25;;;3.80;99.90;;;;;;5094920;28;20088;-88
2022/12/09 02:29:18;;;;;;;16.77;8.90;;;3.80;99.90;;;;;;5095584;28;20040;-89
2022/12/09 02:31:49;;;;;;;16.33;8.10;;;3.80;99.90;;;;;;5110283;28;20075;-89
2022/12/09 02:34:20;;;;;;;16.52;8.98;;;3.80;99.90;;;;;;5112706;28;20107;-88
2022/12/09 02:37:17;;;;;;;18.48;9.00;;;3.80;99.90;;;;;;5095108;28;20404;-88
2022/12/09 02:40:06;;;;;;;17.33;8.25;;;3.80;99.90;;;;;;5094653;28;20497;-88
2022/12/09 02:42:35;;;;;;;14.25;7.82;;;3.80;99.90;;;;;;5111998;28;20258;-88
2022/12/09 02:45:04;;;;;;;16.23;8.30;;;3.80;99.90;;;;;;5110959;28;20031;-89
2022/12/09 02:47:33;;;;;;;15.40;8.07;;;3.80;99.90;;;;;;5111777;28;20403;-88
2022/12/09 02:50:03;;;;;;;15.18;8.20;;;3.80;99.90;;;;;;5094556;28;20035;-88
2022/12/09 02:52:30;;;;;;;17.70;8.27;;;3.80;99.90;;;;;;5111578;28;20040;-87
2022/12/09 02:54:59;;;;;;;16.83;8.32;;;3.70;99.90;;;;;;5095224;28;20039;-88
2022/12/09 02:57:27;;;;;;;15.88;8.52;;;3.70;99.90;;;;;;5111842;28;20043;-88
2022/12/09 02:59:53;;;;;;;19.30;8.18;;;3.70;99.90;;;;;;5094727;28;20097;-88
2022/12/09 03:02:30;;;;;;;14.85;8.25;;;3.70;99.90;;;;;;5093299;28;20043;-88
2022/12/09 03:05:52;;;;;;;15.65;7.75;;;3.70;99.90;;;;;;5094419;28;20059;-88
2022/12/09 03:08:42;;;;;;;14.68;7.82;;;3.70;99.90;;;;;;5029372;28;20029;-89
2022/12/09 03:11:16;;;;;;;17.25;9.52;;;3.60;99.90;;;;;;5026323;28;20037;-88
2022/12/09 03:13:51;;;;;;;16.77;8.02;;;3.60;99.90;;;;;;5023291;28;20046;-88
2022/12/09 03:16:29;;;;;;;14.00;7.63;;;3.60;99.90;;;;;;5026924;28;20052;-89
2022/12/09 03:19:04;;;;;;;16.98;8.98;;;3.50;99.90;;;;;;5013035;28;20107;-88
2022/12/09 03:21:33;;;;;;;20.23;9.23;;;3.50;99.90;;;;;;5012256;28;20045;-88
2022/12/09 03:24:00;;;;;;;19.30;9.20;;;3.50;99.90;;;;;;5012682;28;20037;-88
2022/12/09 03:26:30;;;;;;;13.27;7.60;;;3.40;99.90;;;;;;5012262;28;20049;-88
2022/12/09 03:29:00;;;;;;;15.43;8.07;;;3.40;99.90;;;;;;5012921;28;20141;-88
2022/12/09 03:31:29;;;;;;;18.55;8.43;;;3.40;99.90;;;;;;5011202;28;20466;-88
2022/12/09 03:33:58;;;;;;;13.90;7.47;;;3.40;99.90;;;;;;5029253;28;20083;-88
2022/12/09 03:36:27;;;;;;;15.60;8.57;;;3.40;99.90;;;;;;5013058;28;20076;-88
2022/12/09 03:38:54;;;;;;;15.68;8.00;;;3.40;99.90;;;;;;5061540;28;20062;-88
2022/12/09 03:41:22;;;;;;;15.07;7.78;;;3.40;99.90;;;;;;5090615;28;20039;-88
2022/12/09 03:43:54;;;;;;;15.88;7.85;;;3.40;99.90;;;;;;5079163;28;20082;-88
2022/12/09 03:46:21;;;;;;;15.05;8.48;;;3.40;99.90;;;;;;5073977;28;20040;-88
2022/12/09 03:48:47;;;;;;;18.38;8.90;;;3.30;99.90;;;;;;5093985;28;20034;-88
2022/12/09 03:51:49;;;;;;;16.85;9.02;;;3.30;99.90;;;;;;5093472;28;20087;-89
2022/12/09 03:54:36;;;;;;;13.45;7.00;;;3.40;99.90;;;;;;5110505;28;20050;-89
2022/12/09 03:57:03;;;;;;;16.95;7.95;;;3.30;99.90;;;;;;5093558;28;20074;-89
2022/12/09 03:59:33;;;;;;;15.15;7.70;;;3.30;99.90;;;;;;5092763;28;20039;-89
2022/12/09 04:01:59;;;;;;;14.27;7.35;;;3.30;99.90;;;;;;5110394;28;20048;-88
2022/12/09 04:04:26;;;;;;;17.55;9.00;;;3.30;99.90;;;;;;5110389;28;20100;-89
2022/12/09 04:06:52;;;;;;;14.25;7.95;;;3.30;99.90;;;;;;5092998;28;20048;-88
2022/12/09 04:09:18;;;;;;;17.13;9.27;;;3.30;99.90;;;;;;5093374;28;20036;-89
2022/12/09 04:11:43;;;;;;;13.85;6.70;;;3.30;99.90;;;;;;5092803;28;20083;-88
2022/12/09 04:14:09;;;;;;;16.38;8.57;;;3.30;99.90;;;;;;5093707;28;20405;-88
2022/12/09 04:16:35;;;;;;;16.08;8.35;;;3.30;99.90;;;;;;5110562;28;20528;-88
2022/12/09 04:19:00;;;;;;;17.33;7.70;;;3.30;99.90;;;;;;5109228;28;20027;-88
2022/12/09 04:21:26;;;;;;;17.25;8.73;;;3.30;99.90;;;;;;5110312;28;20039;-88
2022/12/09 04:23:52;;;;;;;16.50;8.45;;;3.30;99.90;;;;;;5110802;28;20599;-88
2022/12/09 04:26:20;;;;;;;19.48;8.88;;;3.30;99.90;;;;;;5109329;28;20046;-88
2022/12/09 04:28:46;;;;;;;18.42;8.57;;;3.30;99.90;;;;;;5110439;28;20043;-88
2022/12/09 04:31:13;;;;;;;17.30;9.50;;;3.30;99.90;;;;;;5109438;28;20611;-88
2022/12/09 04:33:39;;;;;;;17.17;9.25;;;3.30;99.90;;;;;;5092689;28;20045;-88
2022/12/09 04:36:11;;;;;;;16.05;8.07;;;3.30;99.90;;;;;;5110399;28;20075;-88
2022/12/09 04:38:37;;;;;;;19.63;9.68;;;3.30;99.90;;;;;;5109254;28;20062;-89
2022/12/09 04:41:04;;;;;;;18.10;8.77;;;3.30;99.90;;;;;;5093157;28;20392;-88
2022/12/09 04:43:29;;;;;;;17.80;9.00;;;3.30;99.90;;;;;;5109112;28;20564;-88
2022/12/09 04:46:00;;;;;;;17.15;9.35;;;3.30;99.90;;;;;;5109437;28;20564;-88
2022/12/09 04:48:26;;;;;;;18.15;9.30;;;3.30;99.90;;;;;;5092596;28;20063;-88
2022/12/09 04:50:52;;;;;;;20.17;9.07;;;3.30;99.90;;;;;;5109457;28;20089;-88
2022/12/09 04:53:17;;;;;;;18.92;9.10;;;3.30;99.90;;;;;;5109494;28;20075;-88
2022/12/09 04:55:43;;;;;;;15.45;8.27;;;3.40;99.90;;;;;;5109207;28;20039;-88
2022/12/09 04:58:08;;;;;;;15.75;8.38;;;3.40;99.90;;;;;;5109591;28;20044;-88
2022/12/09 05:00:34;;;;;;;16.08;8.15;;;3.40;99.90;;;;;;5109749;28;20078;-88
2022/12/09 05:02:59;;;;;;;16.58;9.07;;;3.30;99.90;;;;;;5085143;28;20046;-89
2022/12/09 05:05:25;;;;;;;16.95;8.95;;;3.30;99.90;;;;;;5072368;28;20079;-86
2022/12/09 05:07:50;;;;;;;16.52;9.18;;;3.40;99.90;;;;;;5094954;28;20059;-87
2022/12/09 05:10:16;;;;;;;17.05;8.85;;;3.40;99.90;;;;;;5092210;28;20421;-86
2022/12/09 05:12:42;;;;;;;15.32;8.40;;;3.30;99.90;;;;;;5092190;28;20039;-87
2022/12/09 05:15:08;;;;;;;16.48;8.70;;;3.30;99.90;;;;;;5091957;28;20092;-86
2022/12/09 05:17:33;;;;;;;14.95;8.20;;;3.30;99.90;;;;;;5109535;28;20039;-87
2022/12/09 05:19:59;;;;;;;19.60;9.52;;;3.30;99.90;;;;;;5108381;28;20063;-87
2022/12/09 05:22:24;;;;;;;18.38;9.05;;;3.30;99.90;;;;;;5091472;28;20044;-86
2022/12/09 05:24:50;;;;;;;18.95;9.93;;;3.30;99.90;;;;;;5092228;28;20039;-87
2022/12/09 05:27:15;;;;;;;20.17;9.73;;;3.30;99.90;;;;;;5091262;28;20040;-87
2022/12/09 05:29:41;;;;;;;20.90;10.98;;;3.20;99.90;;;;;;5092793;28;20039;-86
2022/12/09 05:32:07;;;;;;;23.02;10.25;;;3.30;99.90;;;;;;5108283;28;20665;-86
2022/12/09 05:34:32;;;;;;;18.75;10.75;;;3.30;99.90;;;;;;5092649;28;20035;-87
2022/12/09 05:36:58;;;;;;;17.38;9.57;;;3.20;99.90;;;;;;5109334;28;20536;-87
2022/12/09 05:39:24;;;;;;;19.40;10.20;;;3.20;99.90;;;;;;5108058;28;20055;-87
2022/12/09 05:41:49;;;;;;;19.98;10.82;;;3.20;99.90;;;;;;5091980;28;20401;-86
2022/12/09 05:44:15;;;;;;;20.33;10.30;;;3.30;99.90;;;;;;5074299;28;20113;-87
2022/12/09 05:46:41;;;;;;;17.52;10.05;;;3.20;99.90;;;;;;5088285;28;20572;-86
2022/12/09 05:49:06;;;;;;;18.08;10.25;;;3.20;99.90;;;;;;5092871;28;20039;-87
2022/12/09 05:51:32;;;;;;;21.73;10.00;;;3.30;99.90;;;;;;5091624;28;20046;-87
2022/12/09 05:54:03;;;;;;;20.45;11.27;;;3.20;99.90;;;;;;5108882;28;20044;-87
2022/12/09 05:56:29;;;;;;;21.42;10.85;;;3.20;99.90;;;;;;5091729;28;20065;-87
2022/12/09 05:58:55;;;;;;;22.45;11.63;;;3.20;99.90;;;;;;5090451;28;20035;-87
2022/12/09 06:01:22;;;;;;;19.63;11.18;;;3.20;99.90;;;;;;5106672;28;20035;-87
2022/12/09 06:03:49;;;;;;;20.27;9.85;;;3.20;99.90;;;;;;5106787;28;20043;-87
2022/12/09 06:06:17;;;;;;;20.50;10.60;;;3.20;99.90;;;;;;5109155;28;20035;-87
2022/12/09 06:08:44;;;;;;;20.90;11.25;;;3.20;99.90;;;;;;5112451;28;20118;-87
2022/12/09 06:11:12;;;;;;;21.35;12.02;;;3.20;99.90;;;;;;5102559;28;20077;-87
2022/12/09 06:13:38;;;;;;;18.42;9.43;;;3.20;99.90;;;;;;5074393;28;20489;-86
2022/12/09 06:16:05;;;;;;;20.33;10.77;;;3.20;99.90;;;;;;5107965;28;20042;-87
2022/12/09 06:18:31;;;;;;;20.40;11.25;;;3.10;99.90;;;;;;5094008;28;20079;-87
2022/12/09 06:20:57;;;;;;;21.30;11.25;;;3.10;99.90;;;;;;5111129;28;20073;-87
2022/12/09 06:23:22;;;;;;;21.30;11.43;;;3.10;99.90;;;;;;5093874;28;20479;-86
2022/12/09 06:25:48;;;;;;;19.92;10.93;;;3.10;99.90;;;;;;5111875;28;20043;-87
2022/12/09 06:28:13;;;;;;;20.50;9.55;;;3.10;99.90;;;;;;5110748;28;20127;-86
2022/12/09 06:30:39;;;;;;;19.95;10.98;;;3.00;99.90;;;;;;5106352;28;20032;-86
2022/12/09 06:33:05;;;;;;;20.38;10.77;;;3.00;99.90;;;;;;5093974;28;20035;-86
2022/12/09 06:35:31;;;;;;;22.15;11.73;;;3.00;99.90;;;;;;5111081;28;20074;-87
2022/12/09 06:37:57;;;;;;;19.27;10.52;;;2.90;99.90;;;;;;5111899;28;20051;-87
2022/12/09 06:40:22;;;;;;;21.45;10.77;;;2.90;99.90;;;;;;5093797;28;20054;-87
2022/12/09 06:42:49;;;;;;;20.23;10.35;;;2.90;99.90;;;;;;5094520;28;20369;-87
2022/12/09 06:45:19;;;;;;;20.77;11.25;;;2.80;99.90;;;;;;5096904;28;20079;-87
2022/12/09 06:47:44;;;;;;;21.75;11.50;;;2.80;99.90;;;;;;5100841;28;20039;-87
2022/12/09 06:50:11;;;;;;;24.48;11.45;;;2.80;99.90;;;;;;5111329;28;20035;-86
2022/12/09 06:52:38;;;;;;;21.52;10.85;;;2.80;99.90;;;;;;5093113;28;20409;-87
2022/12/09 06:55:07;;;;;;;18.38;9.32;;;2.70;99.90;;;;;;5111264;28;20504;-87
2022/12/09 06:57:33;;;;;;;19.00;9.63;;;2.70;99.90;;;;;;5094100;28;20169;-86
2022/12/09 07:00:00;;;;;;;19.33;10.27;;;2.70;99.90;;;;;;5109934;28;20502;-86
2022/12/09 07:02:26;;;;;;;19.85;10.05;;;2.60;99.90;;;;;;5110694;28;20682;-86
2022/12/09 07:04:55;;;;;;;21.38;11.00;;;2.60;99.90;;;;;;5110833;28;20032;-86
2022/12/09 07:07:21;;;;;;;25.13;11.80;;;2.60;99.90;;;;;;5110712;28;20119;-86
2022/12/09 07:09:47;;;;;;;22.17;12.55;;;2.60;99.90;;;;;;5102276;28;20147;-86
2022/12/09 07:12:13;;;;;;;22.05;10.80;;;2.60;99.90;;;;;;5110750;28;20524;-86
2022/12/09 07:14:38;;;;;;;20.23;10.27;;;2.60;99.90;;;;;;5110612;28;20039;-86
2022/12/09 07:17:04;;;;;;;21.10;11.27;;;2.50;99.90;;;;;;5092936;28;20370;-86
2022/12/09 07:19:30;;;;;;;21.58;10.80;;;2.50;99.90;;;;;;5091300;28;20036;-86
2022/12/09 07:21:56;;;;;;;24.33;12.52;;;2.50;99.90;;;;;;5090511;28;20043;-86
2022/12/09 07:24:22;;;;;;;23.38;12.73;;;2.40;99.90;;;;;;5104585;28;20042;-86
2022/12/09 07:26:48;;;;;;;27.70;12.90;;;2.40;99.90;;;;;;5110349;28;20039;-86
2022/12/09 07:29:14;;;;;;;24.67;13.07;;;2.40;99.90;;;;;;5109817;28;20047;-86
2022/12/09 07:31:39;;;;;;;21.73;11.20;;;2.40;99.90;;;;;;5110257;28;20040;-86
2022/12/09 07:34:05;;;;;;;24.17;13.60;;;2.30;99.90;;;;;;5110044;28;20424;-86
2022/12/09 07:36:33;;;;;;;25.45;13.70;;;2.30;99.90;;;;;;5110337;28;20420;-87
2022/12/09 07:39:04;;;;;;;25.33;11.63;;;2.30;99.90;;;;;;5110330;28;20043;-86
2022/12/09 07:41:30;;;;;;;23.00;12.48;;;2.30;99.90;;;;;;5092716;28;20636;-86
2022/12/09 07:43:56;;;;;;;25.42;13.15;;;2.30;99.90;;;;;;5109567;28;20040;-86
2022/12/09 07:46:26;;;;;;;26.45;13.80;;;2.30;99.90;;;;;;5109834;28;20046;-85
2022/12/09 07:48:52;;;;;;;25.58;13.45;;;2.20;99.90;;;;;;5093434;28;20535;-86
2022/12/09 07:51:18;;;;;;;28.40;14.75;;;2.20;99.90;;;;;;5093556;28;20035;-85
2022/12/09 07:53:44;;;;;;;23.98;12.68;;;2.20;99.90;;;;;;5108109;28;20035;-85
2022/12/09 07:56:13;;;;;;;23.65;12.15;;;2.20;99.90;;;;;;5110418;28;20031;-86
2022/12/09 07:58:39;;;;;;;26.65;14.40;;;2.20;99.90;;;;;;5110076;28;20050;-86
2022/12/09 08:01:06;;;;;;;27.90;14.05;;;2.20;99.90;;;;;;5108014;28;20104;-86
2022/12/09 08:03:32;;;;;;;25.80;14.32;;;2.20;99.90;;;;;;5092771;28;20044;-86
2022/12/09 08:05:58;;;;;;;26.67;14.63;;;2.20;99.90;;;;;;5092072;28;20032;-86
2022/12/09 08:08:23;;;;;;;27.17;14.02;;;2.20;99.90;;;;;;5084041;28;20048;-86
2022/12/09 08:10:49;;;;;;;29.10;15.13;;;2.10;99.90;;;;;;5093371;28;20040;-86
2022/12/09 08:13:15;;;;;;;26.00;14.30;;;2.20;99.90;;;;;;5108893;28;20042;-86
2022/12/09 08:15:41;;;;;;;25.35;13.63;;;2.10;99.90;;;;;;5109801;28;20074;-86
2022/12/09 08:18:07;;;;;;;27.55;13.75;;;2.10;99.90;;;;;;5092756;28;20058;-87
2022/12/09 08:20:32;;;;;;;25.63;13.02;;;2.10;99.90;;;;;;5108816;28;20415;-86
2022/12/09 08:22:58;;;;;;;27.63;13.68;;;2.10;99.90;;;;;;5089861;28;20582;-86
2022/12/09 08:25:24;;;;;;;36.92;16.10;;;2.00;99.90;;;;;;5108998;28;20031;-86
2022/12/09 08:27:49;;;;;;;28.10;15.23;;;2.10;99.90;;;;;;5108742;28;20032;-86
2022/12/09 08:30:15;;;;;;;28.92;14.57;;;2.00;99.90;;;;;;5108308;28;20058;-86
2022/12/09 08:32:41;;;;;;;32.70;18.00;;;2.10;99.90;;;;;;5108914;28;20028;-86
2022/12/09 08:35:13;;;;;;;32.70;16.13;;;2.10;99.90;;;;;;5078934;28;20618;-86
2022/12/09 08:37:42;;;;;;;39.33;17.45;;;2.10;99.90;;;;;;5073573;28;20043;-86
2022/12/09 08:40:08;;;;;;;43.25;17.95;;;2.20;99.90;;;;;;5088129;28;20040;-86
2022/12/09 08:42:34;;;;;;;109.25;23.27;;;2.20;99.90;;;;;;5093315;28;20047;-86
2022/12/09 08:44:59;;;;;;;74.70;20.38;;;2.20;99.90;;;;;;5108625;28;20039;-86
2022/12/09 08:47:26;;;;;;;66.40;20.10;;;2.20;99.90;;;;;;5108603;28;20486;-86
2022/12/09 08:49:52;;;;;;;47.97;20.20;;;2.20;99.90;;;;;;5109038;28;20078;-86
2022/12/09 08:52:17;;;;;;;61.05;18.48;;;2.20;99.90;;;;;;5108184;28;20079;-86
2022/12/09 08:54:43;;;;;;;113.28;21.73;;;2.20;99.90;;;;;;5091023;28;20035;-86
2022/12/09 08:57:09;;;;;;;114.20;21.90;;;2.10;99.90;;;;;;5109471;28;20088;-87
2022/12/09 08:59:34;;;;;;;119.65;21.58;;;2.10;99.90;;;;;;5107896;28;20489;-86
2022/12/09 09:02:00;;;;;;;166.38;23.08;;;2.10;99.90;;;;;;5108071;28;20043;-86
2022/12/09 09:04:25;;;;;;;140.13;21.40;;;2.10;99.90;;;;;;5094882;28;20040;-85
2022/12/09 09:06:52;;;;;;;211.23;26.48;;;2.20;99.90;;;;;;5090788;28;20032;-86
2022/12/09 09:09:18;;;;;;;109.53;22.33;;;2.10;99.90;;;;;;5091813;28;20044;-85
2022/12/09 09:11:44;;;;;;;212.88;24.27;;;2.10;99.90;;;;;;5091171;28;20032;-86
2022/12/09 09:14:11;;;;;;;138.23;23.30;;;2.10;99.90;;;;;;5091237;28;20420;-86
2022/12/09 09:16:40;;;;;;;87.50;22.10;;;2.20;99.90;;;;;;5091910;28;20097;-85
2022/12/09 09:19:06;;;;;;;79.97;23.67;;;2.20;99.90;;;;;;5091413;28;20046;-86
2022/12/09 09:21:33;;;;;;;41.30;19.88;;;2.20;99.90;;;;;;5091042;28;20580;-86
2022/12/09 09:23:58;;;;;;;89.13;19.90;;;2.30;99.90;;;;;;5107294;28;20068;-86
2022/12/09 09:26:26;;;;;;;119.88;22.13;;;2.30;99.90;;;;;;5109228;28;20067;-87
2022/12/09 09:28:53;;;;;;;189.95;25.25;;;2.30;99.90;;;;;;5090938;28;20027;-86
2022/12/09 09:31:21;;;;;;;139.50;23.30;;;2.30;99.90;;;;;;5091589;28;20074;-86
2022/12/09 09:33:47;;;;;;;97.07;22.20;;;2.30;99.90;;;;;;5108577;28;20044;-86
2022/12/09 09:36:19;;;;;;;170.70;25.85;;;2.30;99.90;;;;;;5074768;28;20032;-86
2022/12/09 09:38:46;;;;;;;113.45;23.30;;;2.30;99.90;;;;;;5111034;27;20495;-86
2022/12/09 09:41:42;;;;;;;60.63;19.35;;;2.30;99.90;;;;;;5113423;27;20036;-86
2022/12/09 09:44:24;;;;;;;180.70;22.48;;;2.40;99.90;;;;;;5071688;28;20058;-86
2022/12/09 09:46:51;;;;;;;121.85;20.58;;;2.40;99.90;;;;;;5126077;27;20036;-86
2022/12/09 09:49:44;;;;;;;103.97;21.75;;;2.40;99.90;;;;;;5125719;27;20027;-86
2022/12/09 09:52:17;;;;;;;132.23;20.05;;;2.40;99.90;;;;;;5091616;28;20048;-86
2022/12/09 09:54:43;;;;;;;77.25;18.45;;;2.40;99.90;;;;;;5077426;28;20097;-86
2022/12/09 09:57:34;;;;;;;60.58;17.13;;;2.40;99.90;;;;;;5094773;28;20039;-87
2022/12/09 10:00:20;;;;;;;50.25;17.05;;;2.40;99.90;;;;;;5111451;28;20488;-87
2022/12/09 10:02:59;;;;;;;184.93;22.33;;;2.30;99.90;;;;;;5087570;28;20039;-88
2022/12/09 10:05:31;;;;;;;100.35;19.55;;;2.40;99.90;;;;;;5095160;28;20036;-87
2022/12/09 10:08:05;;;;;;;118.63;22.23;;;2.40;99.90;;;;;;5102414;28;20037;-86
2022/12/09 10:10:49;;;;;;;118.78;20.92;;;2.40;99.90;;;;;;5112043;28;20075;-87
2022/12/09 10:13:51;;;;;;;149.95;26.50;;;2.40;99.90;;;;;;5093918;28;20565;-87
2022/12/09 10:16:22;;;;;;;136.02;23.05;;;2.30;99.90;;;;;;5112548;28;20786;-87
2022/12/09 10:19:00;;;;;;;187.18;26.27;;;2.40;99.90;;;;;;5093929;28;20032;-88
2022/12/09 10:21:29;;;;;;;168.57;24.40;;;2.30;99.90;;;;;;5094718;28;20082;-87
2022/12/09 10:23:57;;;;;;;100.90;22.45;;;2.40;99.90;;;;;;5094437;28;20036;-87
2022/12/09 10:26:29;;;;;;;115.05;23.35;;;2.30;99.90;;;;;;5111077;28;20410;-88
2022/12/09 10:29:15;;;;;;;121.55;22.67;;;2.40;99.90;;;;;;5073967;28;20444;-88
2022/12/09 10:31:41;;;;;;;77.05;23.52;;;2.40;99.90;;;;;;5074348;28;20128;-88
2022/12/09 10:34:09;;;;;;;84.32;23.23;;;2.40;99.90;;;;;;5090515;28;20044;-89
2022/12/09 10:36:37;;;;;;;46.97;20.52;;;2.50;99.90;;;;;;5074512;28;20074;-88
2022/12/09 10:39:04;;;;;;;50.35;22.15;;;2.60;99.90;;;;;;5080251;28;20035;-88
2022/12/09 10:44:28;;;;;;;57.90;26.45;;;2.70;99.90;;;;;;5111046;28;20051;-89
2022/12/09 10:47:06;;;;;;;47.78;23.27;;;2.70;99.90;;;;;;5094258;28;20433;-89
2022/12/09 10:49:34;;;;;;;47.92;22.90;;;2.80;99.90;;;;;;5094167;28;20050;-89
2022/12/09 10:52:00;;;;;;;46.88;23.23;;;2.80;99.90;;;;;;5093066;28;20039;-89
2022/12/09 10:54:31;;;;;;;45.42;22.65;;;2.80;99.90;;;;;;5094200;28;20046;-89
2022/12/09 10:57:11;;;;;;;51.53;23.15;;;2.90;99.90;;;;;;5094159;28;20095;-89
2022/12/09 10:59:38;;;;;;;52.25;24.17;;;2.80;99.90;;;;;;5111593;28;20069;-89
2022/12/09 11:02:07;;;;;;;51.17;23.15;;;2.90;99.90;;;;;;5093703;28;20109;-89
2022/12/09 11:04:34;;;;;;;51.85;24.30;;;2.90;99.90;;;;;;5093641;28;20039;-89
2022/12/09 11:07:21;;;;;;;51.78;25.25;;;3.00;99.90;;;;;;5094293;28;20122;-89
2022/12/09 11:09:56;;;;;;;44.92;22.55;;;3.00;99.90;;;;;;5110353;28;20082;-89
2022/12/09 11:12:27;;;;;;;44.83;22.00;;;3.10;99.90;;;;;;5110831;28;20086;-88
2022/12/09 11:14:54;;;;;;;40.45;21.48;;;3.10;99.90;;;;;;5110115;28;20090;-88
2022/12/09 11:17:32;;;;;;;39.03;20.40;;;3.10;99.90;;;;;;5094561;28;20106;-89
2022/12/09 11:20:04;;;;;;;40.78;20.35;;;3.10;99.90;;;;;;5093348;28;20053;-89
2022/12/09 11:22:37;;;;;;;41.17;20.67;;;3.10;99.90;;;;;;5092780;28;20035;-89
2022/12/09 11:25:21;;;;;;;;;;;3.00;99.90;;;;;;5094382;28;20411;-89
2022/12/09 11:28:08;;;;;;;40.28;20.27;;;3.00;99.90;;;;;;5109746;28;20538;-88
2022/12/09 11:30:47;;;;;;;38.85;20.10;;;3.00;99.90;;;;;;5093594;28;20039;-89
2022/12/09 11:33:13;;;;;;;39.45;20.25;;;3.00;99.90;;;;;;5092895;28;20031;-89
2022/12/09 11:35:44;;;;;;;39.42;19.05;;;3.00;99.90;;;;;;5099002;28;20585;-89
2022/12/09 11:38:29;;;;;;;42.15;20.77;;;3.00;99.90;;;;;;5112178;27;20089;-88
2022/12/09 11:40:57;;;;;;;37.97;19.20;;;3.00;99.90;;;;;;5118743;27;20036;-89
2022/12/09 11:43:45;;;;;;;40.83;21.55;;;3.00;99.90;;;;;;5071455;28;20059;-88
2022/12/09 11:46:13;;;;;;;39.65;20.77;;;3.10;99.90;;;;;;5113871;27;20534;-88
2022/12/09 11:48:49;;;;;;;42.75;21.30;;;3.00;99.90;;;;;;5072618;28;20044;-90
2022/12/09 11:51:27;;;;;;;38.92;18.73;;;3.10;99.90;;;;;;5107310;28;20047;-89
2022/12/09 11:54:01;;;;;;;37.65;18.95;;;3.10;99.90;;;;;;5078381;28;20043;-88
2022/12/09 11:56:27;;;;;;;34.65;18.48;;;3.10;99.90;;;;;;5092930;28;20044;-89
2022/12/09 11:59:00;;;;;;;39.95;21.27;;;3.10;99.90;;;;;;5092062;28;20496;-89
2022/12/09 12:01:47;;;;;;;;;;;3.20;99.90;;;;;;5093408;28;20630;-89
2022/12/09 12:04:17;;;;;;;34.58;17.10;;;3.20;99.90;;;;;;5090825;28;19927;-88
2022/12/09 12:07:25;;;;;;;34.45;16.92;;;3.20;99.90;;;;;;5092758;28;20511;-88
2022/12/09 12:09:58;;;;;;;38.20;19.30;;;3.20;99.90;;;;;;5053526;28;20130;-88
2022/12/09 12:12:26;;;;;;;36.80;17.95;;;3.30;99.90;;;;;;5092609;28;20275;-88
2022/12/09 12:14:54;;;;;;;33.78;18.40;;;3.30;99.90;;;;;;5092555;28;20087;-88
2022/12/09 12:17:36;;;;;;;31.23;15.52;;;3.30;99.90;;;;;;5092675;28;20054;-88
2022/12/09 12:20:02;;;;;;;28.13;15.77;;;3.40;99.90;;;;;;5110002;28;20050;-88
2022/12/09 12:23:04;;;;;;;29.38;15.57;;;3.40;99.90;;;;;;5091974;28;20039;-89
2022/12/09 12:25:45;;;;;;;33.20;17.95;;;3.40;99.90;;;;;;5092346;28;20054;-88
2022/12/09 12:28:34;;;;;;;36.53;17.20;;;3.40;99.90;;;;;;5108748;28;20085;-88
2022/12/09 12:31:38;;;;;;;33.80;16.05;;;3.40;99.90;;;;;;5117381;27;20046;-88
2022/12/09 12:34:41;;;;;;;33.22;16.08;;;3.40;99.90;;;;;;5077131;28;20035;-88
2022/12/09 12:37:41;;;;;;;31.67;15.18;;;3.40;99.90;;;;;;5109513;28;20032;-88
2022/12/09 12:40:23;;;;;;;29.95;15.52;;;3.40;99.90;;;;;;5092112;28;20027;-88
2022/12/09 12:46:16;;;;;;;30.73;14.70;;;3.40;99.90;;;;;;5088454;28;20048;-88
2022/12/09 12:49:12;;;;;;;25.55;12.93;;;3.40;99.90;;;;;;5075364;28;20043;-88
2022/12/09 12:51:56;;;;;;;27.40;13.70;;;3.40;99.90;;;;;;5108042;28;20044;-87
2022/12/09 12:54:51;;;;;;;27.05;12.88;;;3.40;99.90;;;;;;5108661;28;20044;-88
2022/12/09 12:57:28;;;;;;;24.33;12.07;;;3.40;99.90;;;;;;5108961;28;20070;-88
2022/12/09 13:00:09;;;;;;;26.05;14.45;;;3.40;99.90;;;;;;5109586;28;20092;-87
2022/12/09 13:02:59;;;;;;;27.08;13.07;;;3.40;99.90;;;;;;5091894;28;20118;-88
2022/12/09 13:05:36;;;;;;;25.05;11.52;;;3.40;99.90;;;;;;5091202;28;20115;-88